Time;durP1;ratioP1;P1;durP2;ratioP2;P2;SDS_P1;SDS_P2;PMS_P1;PMS_P2;Temp;Humidity;BMP_temperature;BMP_pressure;BME280_temperature;BME280_humidity;BME280_pressure;Samples;Min_cycle;Max_cycle;Signal;HPM_P1;HPM_P2
2023/05/28 00:01:58;;;;;;;5.90;4.50;;;;;;;16.56;51.29;155615.03;5002640;28;21262;-76
2023/05/28 00:04:25;;;;;;;6.30;4.70;;;;;;;16.49;51.45;155598.09;5004099;28;21021;-76
2023/05/28 00:06:52;;;;;;;6.57;4.43;;;;;;;16.41;51.53;155577.28;5006728;28;20435;-76
2023/05/28 00:09:19;;;;;;;5.67;4.33;;;;;;;16.25;52.29;155536.97;4987823;28;20445;-76
2023/05/28 00:11:46;;;;;;;5.87;4.53;;;;;;;16.12;52.69;155501.88;5020980;28;20889;-75
2023/05/28 00:14:12;;;;;;;8.73;4.80;;;;;;;16.07;53.17;155488.88;5001518;28;20457;-75
2023/05/28 00:16:40;;;;;;;5.53;4.60;;;;;;;15.99;53.51;155468.06;4984031;28;20453;-76
2023/05/28 00:19:09;;;;;;;6.00;4.97;;;;;;;15.91;53.65;155448.56;4989474;28;20477;-75
2023/05/28 00:21:36;;;;;;;7.30;4.60;;;;;;;15.83;54.25;155427.75;4988854;28;20430;-75
2023/05/28 00:24:03;;;;;;;6.23;4.87;;;;;;;15.68;54.66;155388.72;4987524;28;20495;-76
2023/05/28 00:26:29;;;;;;;6.57;5.33;;;;;;;15.58;54.96;155362.75;4984361;28;20438;-76
2023/05/28 00:28:58;;;;;;;6.70;4.60;;;;;;;15.59;55.14;155366.66;4998102;28;20515;-75
2023/05/28 00:31:24;;;;;;;6.70;4.17;;;;;;;15.62;54.89;155374.41;4984082;28;20910;-76
2023/05/28 00:33:51;;;;;;;6.90;5.03;;;;;;;15.69;54.79;155392.66;4984592;28;20991;-76
2023/05/28 00:36:19;;;;;;;7.17;5.20;;;;;;;15.74;55.03;155405.66;5014661;28;20466;-76
2023/05/28 00:38:46;;;;;;;7.13;5.40;;;;;;;15.75;54.87;155408.22;5007790;28;20446;-76
2023/05/28 00:41:12;;;;;;;8.20;5.20;;;;;;;15.66;55.05;155384.84;5028130;28;20448;-76
2023/05/28 00:43:39;;;;;;;6.80;5.27;;;;;;;15.56;55.19;155358.84;5023074;28;20496;-76
2023/05/28 00:46:06;;;;;;;7.07;5.67;;;;;;;15.52;55.45;155347.13;5022371;28;20505;-75
2023/05/28 00:48:33;;;;;;;6.67;4.77;;;;;;;15.49;55.36;155340.63;4988864;28;20474;-75
2023/05/28 00:51:00;;;;;;;7.20;5.13;;;;;;;15.45;55.48;155330.19;4970415;28;20469;-75
2023/05/28 00:53:28;;;;;;;6.40;4.90;;;;;;;15.41;56.03;155318.53;5000778;28;20446;-75
2023/05/28 00:55:55;;;;;;;8.73;6.57;;;;;;;15.38;56.13;155311.97;4969277;28;20449;-76
2023/05/28 00:58:22;;;;;;;5.80;4.73;;;;;;;15.40;56.05;155317.22;4988947;28;20895;-75
2023/05/28 01:00:48;;;;;;;6.80;5.57;;;;;;;15.38;56.33;155311.97;4988730;28;20472;-76
2023/05/28 01:03:16;;;;;;;5.40;4.90;;;;;;;15.29;56.57;155287.31;4981843;28;20447;-75
2023/05/28 01:05:43;;;;;;;7.57;5.03;;;;;;;15.17;56.59;155257.41;5003362;28;20502;-76
2023/05/28 01:08:09;;;;;;;7.63;5.13;;;;;;;15.08;56.55;155235.34;4987499;28;20441;-75
2023/05/28 01:10:38;;;;;;;7.47;5.03;;;;;;;14.97;56.96;155205.44;5003881;28;20478;-75
2023/05/28 01:13:06;;;;;;;7.40;4.90;;;;;;;14.92;56.74;155192.47;5008084;28;20442;-76
2023/05/28 01:15:32;;;;;;;6.47;5.57;;;;;;;15.02;56.40;155218.44;5007136;28;20448;-76
2023/05/28 01:18:01;;;;;;;9.00;5.00;;;;;;;15.11;55.92;155241.84;5010821;28;20440;-76
2023/05/28 01:20:28;;;;;;;7.20;4.50;;;;;;;15.21;55.26;155267.81;5022837;28;20838;-75
2023/05/28 01:22:56;;;;;;;6.40;4.77;;;;;;;15.22;55.19;155271.69;5025419;28;20439;-75
2023/05/28 01:25:26;;;;;;;7.47;4.70;;;;;;;15.26;55.11;155280.81;4974585;28;21048;-75
2023/05/28 01:27:54;;;;;;;6.37;4.53;;;;;;;15.27;55.01;155282.13;4991903;28;20543;-76
2023/05/28 01:30:22;;;;;;;7.90;5.03;;;;;;;15.29;55.33;155287.31;4990869;28;20441;-76
2023/05/28 01:32:49;;;;;;;6.63;5.13;;;;;;;15.40;54.66;155317.22;4991186;28;20443;-76
2023/05/28 01:35:15;;;;;;;8.23;4.60;;;;;;;15.58;53.51;155364.03;5031037;28;20569;-76
2023/05/28 01:37:48;;;;;;;7.50;5.07;;;;;;;15.64;53.56;155378.34;4980056;28;20593;-75
2023/05/28 01:40:17;;;;;;;5.90;4.60;;;;;;;15.53;54.37;155351.06;4987182;28;20582;-75
2023/05/28 01:42:46;;;;;;;6.73;4.80;;;;;;;15.42;54.81;155322.41;4970989;28;20452;-75
2023/05/28 01:45:14;;;;;;;6.63;4.00;;;;;;;15.35;54.64;155302.91;4971024;28;20456;-75
2023/05/28 01:47:41;;;;;;;5.87;4.30;;;;;;;15.18;55.08;155260.00;4987139;28;20453;-75
2023/05/28 01:50:08;;;;;;;6.17;4.53;;;;;;;15.10;55.13;155240.53;5006453;28;20440;-75
2023/05/28 01:52:35;;;;;;;6.27;4.43;;;;;;;15.01;55.58;155215.88;4989982;28;21141;-75
2023/05/28 01:55:02;;;;;;;5.83;4.20;;;;;;;14.93;55.89;155195.06;4992352;28;20516;-75
2023/05/28 01:57:28;;;;;;;6.47;4.43;;;;;;;14.87;56.02;155179.47;4986802;28;20475;-75
2023/05/28 01:59:56;;;;;;;7.73;5.20;;;;;;;14.75;56.64;155148.25;5005006;28;20482;-76
2023/05/28 02:02:26;;;;;;;6.43;4.80;;;;;;;14.67;57.65;155127.53;5003360;28;21005;-76
2023/05/28 02:04:53;;;;;;;5.43;4.33;;;;;;;14.67;56.90;155128.78;5007976;28;20528;-75
2023/05/28 02:07:21;;;;;;;5.77;4.27;;;;;;;14.59;57.46;155108.00;4973536;28;20443;-76
2023/05/28 02:09:49;;;;;;;6.70;4.27;;;;;;;14.52;58.01;155089.84;4990742;28;20474;-75
2023/05/28 02:12:16;;;;;;;6.00;4.03;;;;;;;14.55;57.63;155098.94;5010817;28;20455;-75
2023/05/28 02:14:44;;;;;;;9.27;4.90;;;;;;;14.54;57.44;155096.31;4988306;28;20502;-75
2023/05/28 02:17:12;;;;;;;4.63;3.83;;;;;;;14.53;57.09;155092.47;5002883;28;20434;-75
2023/05/28 02:19:39;;;;;;;5.57;3.50;;;;;;;14.60;56.85;155110.63;4986160;28;20493;-75
2023/05/28 02:22:11;;;;;;;6.37;5.00;;;;;;;14.64;57.48;155122.28;4986466;28;20444;-76
2023/05/28 02:24:37;;;;;;;8.43;4.90;;;;;;;14.62;58.29;155117.09;4985969;28;20952;-75
2023/05/28 02:27:05;;;;;;;7.10;4.47;;;;;;;14.50;58.38;155084.66;4990607;28;20902;-75
2023/05/28 02:29:32;;;;;;;6.30;4.10;;;;;;;14.52;58.89;155091.16;4982152;28;20450;-75
2023/05/28 02:31:59;;;;;;;5.13;4.63;;;;;;;14.56;58.52;155101.50;4983319;28;20459;-75
2023/05/28 02:34:28;;;;;;;7.60;4.40;;;;;;;14.51;59.66;155088.53;5022137;28;20478;-75
2023/05/28 02:36:55;;;;;;;6.40;4.60;;;;;;;14.41;59.08;155062.56;4991241;28;20433;-75
2023/05/28 02:39:22;;;;;;;5.90;4.87;;;;;;;14.33;59.68;155041.78;4988849;28;20442;-75
2023/05/28 02:41:49;;;;;;;4.50;3.60;;;;;;;14.25;59.72;155019.66;4973609;28;20449;-75
2023/05/28 02:44:16;;;;;;;5.70;4.50;;;;;;;14.20;59.39;155006.66;4989166;28;20500;-75
2023/05/28 02:46:43;;;;;;;8.37;5.27;;;;;;;14.23;59.24;155014.47;4974733;28;20459;-75
2023/05/28 02:49:09;;;;;;;6.27;4.57;;;;;;;14.22;58.95;155013.16;5002394;28;20473;-75
2023/05/28 02:51:37;;;;;;;6.53;4.50;;;;;;;14.30;58.68;155032.63;4969361;28;20485;-76
2023/05/28 02:54:13;;;;;;;6.13;4.27;;;;;;;14.30;58.30;155033.94;4978701;28;20506;-75
2023/05/28 02:56:39;;;;;;;6.00;3.87;;;;;;;14.35;57.92;155046.97;4986834;28;20444;-76
2023/05/28 02:59:06;;;;;;;7.30;4.27;;;;;;;14.34;58.14;155044.41;5001896;28;20458;-76
2023/05/28 03:01:32;;;;;;;7.00;5.03;;;;;;;14.50;57.76;155085.97;5002057;28;20476;-75
2023/05/28 03:03:59;;;;;;;6.30;4.80;;;;;;;14.45;57.61;155071.69;4989609;28;20454;-75
2023/05/28 03:06:26;;;;;;;5.53;4.20;;;;;;;14.37;57.90;155052.19;4994546;28;20454;-75
2023/05/28 03:08:55;;;;;;;7.80;4.47;;;;;;;14.26;58.34;155023.56;5023273;28;20489;-75
2023/05/28 03:11:22;;;;;;;11.10;5.00;;;;;;;14.32;58.03;155037.91;5004574;28;20508;-75
2023/05/28 03:13:50;;;;;;;6.33;4.60;;;;;;;14.24;58.40;155018.38;5006009;28;20443;-75
2023/05/28 03:16:17;;;;;;;7.70;4.93;;;;;;;14.19;58.27;155005.34;5021261;28;20469;-75
2023/05/28 03:18:45;;;;;;;4.97;4.43;;;;;;;14.16;58.45;154996.31;5021589;28;20437;-76
2023/05/28 03:21:11;;;;;;;4.77;4.10;;;;;;;14.15;58.27;154995.00;4987855;28;21004;-75
2023/05/28 03:23:38;;;;;;;7.40;4.40;;;;;;;14.17;58.19;155000.19;5004935;28;20450;-75
2023/05/28 03:26:09;;;;;;;5.80;4.60;;;;;;;14.21;58.36;155010.59;4988761;28;20441;-75
2023/05/28 03:28:37;;;;;;;6.23;4.53;;;;;;;14.20;58.36;155006.66;4972116;28;20509;-75
2023/05/28 03:31:18;;;;;;;6.00;4.73;;;;;;;14.17;58.27;155000.19;4981053;28;20447;-75
2023/05/28 03:33:44;;;;;;;6.87;5.07;;;;;;;14.17;57.74;155000.19;5010937;28;20451;-76
2023/05/28 03:36:11;;;;;;;5.20;4.33;;;;;;;14.23;57.64;155015.78;4980099;28;20504;-75
2023/05/28 03:38:38;;;;;;;7.00;4.63;;;;;;;14.18;57.53;155002.78;4968709;28;20447;-75
2023/05/28 03:41:05;;;;;;;6.63;4.60;;;;;;;14.14;57.60;154992.38;4984791;28;20577;-76
2023/05/28 03:43:34;;;;;;;5.83;4.50;;;;;;;14.11;57.73;154983.31;4984805;28;20530;-75
2023/05/28 03:46:01;;;;;;;4.87;4.10;;;;;;;14.06;58.10;154970.34;5003468;28;20450;-75
2023/05/28 03:48:28;;;;;;;6.57;4.27;;;;;;;14.07;57.78;154974.22;4968584;28;20509;-75
2023/05/28 03:50:55;;;;;;;5.97;4.77;;;;;;;14.10;57.61;154982.03;5002928;28;20486;-76
2023/05/28 03:53:22;;;;;;;7.20;4.23;;;;;;;14.10;57.88;154982.03;4985131;28;20827;-76
2023/05/28 03:55:51;;;;;;;6.00;4.23;;;;;;;14.11;58.00;154984.59;4986700;28;20457;-75
2023/05/28 03:58:17;;;;;;;5.43;4.73;;;;;;;14.20;57.40;155007.97;4984584;28;20451;-75
2023/05/28 04:00:45;;;;;;;7.00;4.57;;;;;;;14.27;57.27;155024.88;5001295;28;20533;-76
2023/05/28 04:03:12;;;;;;;5.43;4.27;;;;;;;14.22;57.72;155011.84;5000011;28;20454;-75
2023/05/28 04:05:42;;;;;;;4.13;3.70;;;;;;;14.17;57.84;155000.19;4987623;28;20453;-75
2023/05/28 04:08:08;;;;;;;6.83;4.57;;;;;;;14.14;58.21;154991.13;5020347;28;20521;-75
2023/05/28 04:10:35;;;;;;;6.80;4.30;;;;;;;14.10;58.46;154982.03;4997739;28;20561;-75
2023/05/28 04:13:02;;;;;;;5.20;3.97;;;;;;;14.10;58.34;154982.03;4970919;28;20446;-75
2023/05/28 04:15:29;;;;;;;5.70;4.00;;;;;;;14.11;58.58;154983.31;5000555;28;20446;-75
2023/05/28 04:17:57;;;;;;;5.97;4.87;;;;;;;14.29;57.40;155031.38;4986363;28;20439;-76
2023/05/28 04:20:23;;;;;;;5.40;4.10;;;;;;;14.34;57.90;155044.41;4984318;28;20478;-76
2023/05/28 04:22:50;;;;;;;4.80;4.30;;;;;;;14.43;57.75;155067.75;5002059;28;20893;-75
2023/05/28 04:25:18;;;;;;;6.67;4.80;;;;;;;14.59;56.58;155108.00;4984216;28;20455;-75
2023/05/28 04:27:45;;;;;;;6.70;4.73;;;;;;;14.74;56.00;155145.69;4987284;28;20444;-76
2023/05/28 04:30:12;;;;;;;10.77;4.97;;;;;;;14.89;55.76;155184.66;5003608;28;20496;-75
2023/05/28 04:32:39;;;;;;;7.50;4.90;;;;;;;15.01;55.28;155217.13;5020201;28;20992;-75
2023/05/28 04:35:08;;;;;;;8.00;4.13;;;;;;;15.14;55.58;155250.91;5027728;28;20457;-76
2023/05/28 04:37:36;;;;;;;4.60;3.63;;;;;;;15.28;55.02;155286.00;5001818;28;20504;-75
2023/05/28 04:40:04;;;;;;;7.37;4.00;;;;;;;15.43;54.18;155325.00;4989830;28;20451;-75
2023/05/28 04:42:31;;;;;;;5.50;4.20;;;;;;;15.51;54.84;155345.88;4987458;28;20471;-75
2023/05/28 04:44:59;;;;;;;5.80;4.10;;;;;;;15.66;54.79;155384.84;5006224;28;20467;-75
2023/05/28 04:47:27;;;;;;;5.30;4.00;;;;;;;15.76;53.68;155410.84;4989972;28;20499;-75
2023/05/28 04:49:53;;;;;;;6.50;4.80;;;;;;;15.90;54.02;155445.94;5009152;28;20448;-76
2023/05/28 04:52:22;;;;;;;6.00;4.77;;;;;;;16.05;54.01;155483.63;5007933;28;20507;-75
2023/05/28 04:54:48;;;;;;;8.33;4.87;;;;;;;16.18;54.66;155517.44;5008286;28;20465;-75
2023/05/28 04:57:15;;;;;;;5.03;4.07;;;;;;;16.32;53.58;155553.84;4991305;28;20491;-75
2023/05/28 04:59:42;;;;;;;6.40;4.57;;;;;;;16.50;53.28;155599.38;5008814;28;20453;-75
2023/05/28 05:02:09;;;;;;;6.40;4.97;;;;;;;16.63;52.92;155634.53;4972470;28;20512;-75
2023/05/28 05:04:36;;;;;;;5.70;4.20;;;;;;;16.79;52.94;155676.19;5003855;28;20457;-75
2023/05/28 05:07:03;;;;;;;6.00;4.30;;;;;;;16.99;52.33;155726.94;4997846;28;20449;-76
2023/05/28 05:09:31;;;;;;;5.90;4.60;;;;;;;17.15;53.08;155767.28;4987128;28;20572;-76
2023/05/28 05:11:58;;;;;;;7.53;5.03;;;;;;;17.22;52.52;155785.47;5006634;28;20439;-75
2023/05/28 05:14:24;;;;;;;6.60;4.90;;;;;;;17.34;51.62;155816.72;4987731;28;20454;-75
2023/05/28 05:16:51;;;;;;;5.00;4.30;;;;;;;17.46;51.43;155847.94;4990293;28;20503;-75
2023/05/28 05:19:17;;;;;;;8.53;4.50;;;;;;;17.56;49.29;155874.03;5003205;28;20537;-75
2023/05/28 05:21:44;;;;;;;7.27;4.93;;;;;;;17.67;50.54;155902.69;5004078;28;20941;-75
2023/05/28 05:24:11;;;;;;;6.00;4.20;;;;;;;17.73;50.70;155918.31;5003989;28;20446;-76
2023/05/28 05:26:39;;;;;;;5.40;4.30;;;;;;;17.82;52.64;155941.72;5003787;28;20844;-76
2023/05/28 05:29:05;;;;;;;7.83;4.70;;;;;;;17.97;51.64;155980.81;5003902;28;20465;-75
2023/05/28 05:31:32;;;;;;;7.77;5.40;;;;;;;18.11;52.38;156017.25;5003646;28;21146;-76
2023/05/28 05:33:58;;;;;;;7.80;5.10;;;;;;;18.22;51.09;156045.91;4993226;28;20433;-76
2023/05/28 05:36:42;;;;;;;6.00;4.57;;;;;;;18.32;51.99;156069.38;4980564;28;20457;-76
2023/05/28 05:39:25;;;;;;;5.80;4.53;;;;;;;18.44;53.27;156100.59;5022414;28;20449;-76
2023/05/28 05:42:06;;;;;;;8.73;4.83;;;;;;;18.50;50.91;156116.31;4993837;28;20836;-76
2023/05/28 05:44:38;;;;;;;6.83;4.87;;;;;;;18.58;51.29;156138.44;5023445;28;20883;-76
2023/05/28 05:47:06;;;;;;;8.23;4.80;;;;;;;18.57;49.55;156135.84;4990589;28;20442;-76
2023/05/28 05:49:32;;;;;;;13.23;5.50;;;;;;;18.73;49.96;156177.53;5006501;28;20818;-76
2023/05/28 05:52:00;;;;;;;7.90;5.47;;;;;;;18.83;49.87;156203.56;4992132;28;20438;-76
2023/05/28 05:54:27;;;;;;;6.03;5.20;;;;;;;18.75;50.09;156181.41;5023043;28;20473;-75
2023/05/28 05:56:54;;;;;;;6.50;4.77;;;;;;;18.69;51.54;156165.81;4992047;28;20445;-76
2023/05/28 05:59:22;;;;;;;7.70;5.73;;;;;;;18.92;50.80;156224.41;4973246;28;20461;-76
2023/05/28 06:01:49;;;;;;;7.10;5.60;;;;;;;18.91;52.00;156223.09;4991289;28;20473;-76
2023/05/28 06:04:16;;;;;;;5.97;5.43;;;;;;;19.00;52.58;156246.59;5023088;28;20528;-76
2023/05/28 06:06:55;;;;;;;6.73;6.03;;;;;;;19.01;52.66;156249.16;4992003;28;20498;-76
2023/05/28 06:09:40;;;;;;;7.17;5.67;;;;;;;19.30;52.85;156324.75;5015776;28;20474;-76
2023/05/28 06:12:18;;;;;;;8.60;4.90;;;;;;;19.42;50.84;156356.09;4999681;28;20507;-76
2023/05/28 06:14:47;;;;;;;7.80;5.63;;;;;;;19.63;51.46;156409.53;4989755;28;20465;-76
2023/05/28 06:17:14;;;;;;;6.53;5.73;;;;;;;19.84;51.12;156463.00;4970333;28;20812;-76
2023/05/28 06:19:42;;;;;;;7.33;5.27;;;;;;;19.90;49.49;156478.66;4988181;28;20445;-76
2023/05/28 06:22:09;;;;;;;7.63;6.17;;;;;;;20.14;50.48;156541.25;4991448;28;20477;-76
2023/05/28 06:24:36;;;;;;;7.87;5.97;;;;;;;20.14;49.42;156541.25;4970113;28;20573;-76
2023/05/28 06:27:03;;;;;;;7.87;5.90;;;;;;;20.10;48.33;156529.47;4998529;28;20539;-76
2023/05/28 06:29:30;;;;;;;7.07;5.40;;;;;;;20.20;48.54;156556.84;5020608;28;20476;-76
2023/05/28 06:31:58;;;;;;;6.37;5.70;;;;;;;20.37;48.60;156601.28;4975548;28;20540;-76
2023/05/28 06:34:26;;;;;;;6.33;5.70;;;;;;;20.71;46.83;156687.34;5021829;28;20532;-77
2023/05/28 06:36:52;;;;;;;7.60;5.60;;;;;;;20.70;46.12;156684.78;4990947;28;20760;-76
2023/05/28 06:39:19;;;;;;;8.07;5.93;;;;;;;20.59;46.25;156658.69;4989098;28;20459;-76
2023/05/28 06:41:48;;;;;;;7.43;4.97;;;;;;;20.53;47.22;156641.72;4974171;28;20469;-76
2023/05/28 06:44:21;;;;;;;7.40;5.77;;;;;;;20.76;47.46;156700.44;4993735;28;20473;-76
2023/05/28 06:46:55;;;;;;;8.73;6.30;;;;;;;20.84;46.72;156721.28;4987684;28;20454;-76
2023/05/28 06:49:24;;;;;;;7.23;5.40;;;;;;;21.01;46.64;156765.66;5002547;28;20454;-76
2023/05/28 06:51:50;;;;;;;7.23;5.87;;;;;;;21.31;46.04;156842.72;4971137;28;20441;-76
2023/05/28 06:54:17;;;;;;;7.37;5.57;;;;;;;21.40;46.01;156867.50;4986153;28;20443;-76
2023/05/28 06:56:44;;;;;;;6.30;5.60;;;;;;;21.46;46.21;156883.19;4969928;28;20439;-76
2023/05/28 06:59:29;;;;;;;6.17;5.50;;;;;;;21.26;46.74;156829.66;4986053;28;20512;-76
2023/05/28 07:02:09;;;;;;;7.20;5.97;;;;;;;21.14;47.24;156799.63;4986007;28;20973;-76
2023/05/28 07:05:16;;;;;;;7.57;6.03;;;;;;;21.56;45.71;156909.28;4959831;28;20456;-76
2023/05/28 07:07:43;;;;;;;6.83;5.97;;;;;;;21.71;43.85;156948.44;4983289;28;20478;-76
2023/05/28 07:10:10;;;;;;;8.83;5.77;;;;;;;21.68;43.94;156939.31;4976548;28;20481;-77
2023/05/28 07:12:38;;;;;;;7.10;5.47;;;;;;;21.60;44.18;156918.44;4990221;28;20529;-77
2023/05/28 07:15:06;;;;;;;7.80;5.37;;;;;;;21.82;44.24;156977.16;4969166;28;20451;-77
2023/05/28 07:17:34;;;;;;;6.00;4.93;;;;;;;21.73;43.73;156952.38;4974046;28;20588;-77
2023/05/28 07:20:01;;;;;;;6.47;5.30;;;;;;;21.74;44.12;156956.25;4991478;28;20445;-77
2023/05/28 07:23:01;;;;;;;8.37;5.73;;;;;;;22.13;42.67;157056.88;4995201;28;20488;-77
2023/05/28 07:25:28;;;;;;;9.77;5.87;;;;;;;22.06;42.92;157037.25;4988350;28;20580;-77
2023/05/28 07:27:54;;;;;;;7.30;5.33;;;;;;;22.25;42.83;157088.22;4987367;28;20509;-77
2023/05/28 07:30:27;;;;;;;8.27;5.50;;;;;;;22.38;42.41;157120.84;4999525;28;20495;-76
2023/05/28 07:32:57;;;;;;;9.23;5.60;;;;;;;22.31;43.22;157102.59;4989741;28;20457;-77
2023/05/28 07:35:25;;;;;;;5.87;5.00;;;;;;;22.30;42.15;157099.94;4995130;28;20523;-77
2023/05/28 07:37:53;;;;;;;6.43;5.20;;;;;;;22.28;42.54;157094.75;4989510;28;20454;-77
2023/05/28 07:40:21;;;;;;;6.30;5.27;;;;;;;22.20;42.19;157073.84;5005765;28;20445;-77
2023/05/28 07:42:49;;;;;;;7.87;5.13;;;;;;;22.37;43.04;157118.28;4992135;28;20489;-77
2023/05/28 07:45:17;;;;;;;6.00;5.40;;;;;;;22.29;42.76;157097.38;4991184;28;20484;-77
2023/05/28 07:47:43;;;;;;;6.90;5.20;;;;;;;22.53;42.48;157158.75;4991737;28;20448;-77
2023/05/28 07:50:23;;;;;;;7.60;5.70;;;;;;;22.63;42.64;157186.25;5040647;28;20451;-77
2023/05/28 07:53:16;;;;;;;5.73;5.23;;;;;;;22.71;42.51;157205.84;4974869;28;20437;-77
2023/05/28 07:55:44;;;;;;;9.03;5.63;;;;;;;22.78;42.45;157225.41;5004182;28;20454;-77
2023/05/28 07:58:12;;;;;;;6.77;5.23;;;;;;;22.83;41.96;157237.16;5000469;28;20445;-77
2023/05/28 08:00:39;;;;;;;5.93;5.40;;;;;;;22.74;43.21;157214.94;5007575;28;20456;-77
2023/05/28 08:03:06;;;;;;;7.03;5.00;;;;;;;22.58;42.31;157173.13;5007700;28;20476;-77
2023/05/28 08:05:38;;;;;;;6.67;5.10;;;;;;;22.76;43.94;157218.88;5007241;28;20480;-77
2023/05/28 08:08:05;;;;;;;6.83;5.17;;;;;;;23.18;40.72;157327.34;4990022;28;20956;-77
2023/05/28 08:10:32;;;;;;;8.47;5.33;;;;;;;23.25;41.83;157346.94;5008831;28;20529;-77
2023/05/28 08:13:01;;;;;;;5.43;4.87;;;;;;;23.52;41.80;157416.25;4973972;28;20492;-77
2023/05/28 08:15:28;;;;;;;7.23;4.93;;;;;;;23.42;40.26;157391.44;4987927;28;20463;-77
2023/05/28 08:17:56;;;;;;;5.80;5.17;;;;;;;23.73;40.17;157469.84;5005709;28;20871;-76
2023/05/28 08:20:24;;;;;;;5.60;5.00;;;;;;;23.71;39.38;157465.94;4987420;28;20450;-76
2023/05/28 08:22:56;;;;;;;8.60;5.00;;;;;;;23.87;39.63;157507.78;4989374;28;20557;-76
2023/05/28 08:25:24;;;;;;;8.07;5.10;;;;;;;23.91;39.36;157516.91;4971381;28;20457;-76
2023/05/28 08:27:54;;;;;;;8.20;4.63;;;;;;;24.19;39.51;157591.53;4985927;28;20470;-76
2023/05/28 08:30:22;;;;;;;8.20;4.70;;;;;;;24.40;38.33;157645.13;4981777;28;20458;-76
2023/05/28 08:32:58;;;;;;;6.53;5.07;;;;;;;24.17;39.29;157586.25;4971277;28;20433;-76
2023/05/28 08:35:25;;;;;;;7.63;4.60;;;;;;;23.95;39.46;157528.69;5013169;28;20469;-76
2023/05/28 08:37:52;;;;;;;7.17;5.60;;;;;;;24.19;39.50;157591.53;5023452;28;20475;-76
2023/05/28 08:40:31;;;;;;;7.30;4.80;;;;;;;24.36;38.84;157633.38;4987285;28;21035;-76
2023/05/28 08:42:58;;;;;;;6.00;5.10;;;;;;;23.95;38.72;157528.69;4981109;28;20479;-75
2023/05/28 08:45:26;;;;;;;9.30;4.77;;;;;;;23.68;39.45;157458.09;4984292;28;20447;-76
2023/05/28 08:47:53;;;;;;;5.60;5.10;;;;;;;23.59;39.81;157435.84;4985754;28;20442;-75
2023/05/28 08:50:24;;;;;;;6.40;4.27;;;;;;;23.74;40.04;157473.78;4968026;28;20450;-78
2023/05/28 08:53:12;;;;;;;6.30;5.70;;;;;;;23.65;39.91;157450.25;5000227;28;20446;-76
2023/05/28 08:55:38;;;;;;;7.83;5.67;;;;;;;23.81;39.82;157492.06;5000442;28;20533;-78
2023/05/28 08:58:14;;;;;;;6.90;4.53;;;;;;;23.81;40.13;157492.06;4967953;28;20557;-78
2023/05/28 09:00:45;;;;;;;7.33;5.17;;;;;;;23.79;40.55;157485.53;4995931;28;20454;-78
2023/05/28 09:03:29;;;;;;;6.57;5.40;;;;;;;23.70;40.55;157463.31;4967588;28;20486;-78
2023/05/28 09:06:00;;;;;;;5.27;4.57;;;;;;;23.98;40.04;157535.25;5000728;28;20941;-78
2023/05/28 09:08:26;;;;;;;7.53;5.20;;;;;;;24.16;40.21;157583.69;5017722;28;20982;-78
2023/05/28 09:10:56;;;;;;;6.47;5.20;;;;;;;24.06;40.51;157557.47;4990092;28;20570;-77
2023/05/28 09:13:23;;;;;;;6.90;5.07;;;;;;;23.81;40.16;157490.75;5003473;28;20876;-77
2023/05/28 09:15:54;;;;;;;5.83;5.27;;;;;;;23.58;40.99;157431.97;4988672;28;20450;-77
2023/05/28 09:18:21;;;;;;;7.97;5.43;;;;;;;23.29;41.91;157356.09;4987016;28;20458;-75
2023/05/28 09:20:48;;;;;;;8.70;5.20;;;;;;;23.56;41.95;157428.00;5021053;28;20446;-78
2023/05/28 09:23:17;;;;;;;7.30;5.07;;;;;;;23.79;41.03;157485.53;5019511;28;20480;-78
2023/05/28 09:26:10;;;;;;;6.90;4.67;;;;;;;24.01;40.70;157544.34;4970709;28;20445;-78
2023/05/28 09:28:51;;;;;;;7.83;5.13;;;;;;;23.96;40.50;157531.28;4995905;28;20512;-76
2023/05/28 09:31:19;;;;;;;6.60;5.33;;;;;;;23.78;40.85;157482.91;5003494;28;20434;-78
2023/05/28 09:33:46;;;;;;;6.17;4.80;;;;;;;23.47;41.10;157403.19;4998675;28;20462;-76
2023/05/28 09:36:16;;;;;;;9.97;5.20;;;;;;;23.51;41.89;157413.69;5002544;28;20435;-76
2023/05/28 09:38:43;;;;;;;6.87;4.87;;;;;;;23.62;42.28;157443.69;5026255;28;20962;-78
2023/05/28 09:41:19;;;;;;;5.43;4.53;;;;;;;23.70;41.01;157463.31;5031639;28;20527;-78
2023/05/28 09:43:45;;;;;;;6.00;4.80;;;;;;;23.38;41.52;157379.63;5043464;28;20493;-76
2023/05/28 09:46:12;;;;;;;8.43;4.73;;;;;;;23.46;42.30;157400.56;5031387;28;20471;-78
2023/05/28 09:48:40;;;;;;;11.73;5.80;;;;;;;23.52;42.00;157416.25;5025767;28;20968;-78
2023/05/28 09:51:08;;;;;;;8.07;5.33;;;;;;;23.85;41.75;157502.56;5002690;28;20471;-78
2023/05/28 09:53:36;;;;;;;5.23;4.50;;;;;;;23.98;40.54;157536.56;4987011;28;20438;-78
2023/05/28 09:56:03;;;;;;;9.37;5.17;;;;;;;23.98;40.51;157536.56;5006112;28;20445;-78
2023/05/28 09:58:34;;;;;;;8.13;5.67;;;;;;;23.91;41.77;157518.22;5003399;28;20957;-78
2023/05/28 10:01:04;;;;;;;7.60;5.40;;;;;;;24.12;42.37;157573.19;4989595;28;20468;-78
2023/05/28 10:03:37;;;;;;;8.07;6.00;;;;;;;24.33;42.28;157626.78;4986768;28;20462;-78
2023/05/28 10:06:11;;;;;;;5.97;4.60;;;;;;;24.28;40.88;157612.44;5020964;28;21005;-78
2023/05/28 10:08:38;;;;;;;6.80;5.10;;;;;;;24.26;40.04;157607.19;5008638;28;20557;-78
2023/05/28 10:11:07;;;;;;;6.30;5.20;;;;;;;23.87;40.07;157507.78;4986460;28;20836;-77
2023/05/28 10:13:33;;;;;;;7.50;5.63;;;;;;;23.32;41.54;157363.94;4986758;28;20530;-77
2023/05/28 10:16:00;;;;;;;8.20;4.57;;;;;;;22.91;42.37;157259.38;4973041;28;20509;-77
2023/05/28 10:18:27;;;;;;;8.77;4.97;;;;;;;22.82;42.78;157235.84;5002961;28;20546;-77
2023/05/28 10:20:54;;;;;;;7.20;5.20;;;;;;;22.94;42.95;157265.91;4988355;28;20533;-77
2023/05/28 10:23:23;;;;;;;6.30;4.40;;;;;;;23.39;42.42;157382.28;5002727;28;20494;-77
2023/05/28 10:25:49;;;;;;;6.13;5.30;;;;;;;23.54;40.85;157421.47;4989116;28;20899;-77
2023/05/28 10:28:16;;;;;;;6.67;4.80;;;;;;;23.63;40.25;157445.03;4992734;28;20438;-77
2023/05/28 10:30:43;;;;;;;7.40;5.00;;;;;;;23.79;41.34;157485.53;5022596;28;20568;-77
2023/05/28 10:33:12;;;;;;;6.27;4.80;;;;;;;24.07;39.18;157560.06;5022438;28;20442;-78
2023/05/28 10:35:51;;;;;;;6.77;5.20;;;;;;;24.13;39.45;157574.50;5005164;28;20445;-77
2023/05/28 10:38:17;;;;;;;5.73;4.10;;;;;;;24.17;39.30;157586.25;4989387;28;20437;-77
2023/05/28 10:40:46;;;;;;;6.40;4.83;;;;;;;23.88;38.58;157510.38;5011444;28;20444;-77
2023/05/28 10:43:44;;;;;;;7.10;5.03;;;;;;;23.45;38.60;157399.28;4992053;28;20469;-77
2023/05/28 10:46:10;;;;;;;5.20;4.60;;;;;;;23.02;39.71;157288.16;4946848;28;20553;-75
2023/05/28 10:48:39;;;;;;;9.07;4.07;;;;;;;22.64;40.22;157188.81;5002360;28;20497;-77
2023/05/28 10:51:05;;;;;;;4.03;3.63;;;;;;;22.53;41.11;157158.75;4982841;28;20473;-75
2023/05/28 10:53:32;;;;;;;7.37;4.33;;;;;;;22.60;39.91;157178.34;4969681;28;20447;-75
2023/05/28 10:56:02;;;;;;;6.37;4.60;;;;;;;22.69;39.51;157200.63;4989654;28;20449;-75
2023/05/28 10:58:29;;;;;;;5.67;4.63;;;;;;;22.85;40.90;157242.38;4990794;28;20590;-75
2023/05/28 11:01:06;;;;;;;7.10;5.43;;;;;;;23.00;40.24;157281.63;4987578;28;20561;-77
2023/05/28 11:03:40;;;;;;;5.93;4.77;;;;;;;23.27;40.52;157352.16;4989717;28;20982;-77
2023/05/28 11:06:08;;;;;;;7.80;5.00;;;;;;;23.43;40.04;157394.03;4993417;28;20433;-77
2023/05/28 11:08:39;;;;;;;7.67;4.43;;;;;;;23.30;39.13;157360.00;5009985;28;20945;-77
2023/05/28 11:11:07;;;;;;;5.43;3.63;;;;;;;23.12;40.20;157312.94;5021079;28;20980;-74
2023/05/28 11:13:34;;;;;;;6.10;4.30;;;;;;;22.72;40.24;157209.72;5021330;28;20520;-77
2023/05/28 11:16:07;;;;;;;4.70;3.87;;;;;;;22.74;39.48;157213.69;4974126;28;20464;-74
2023/05/28 11:18:34;;;;;;;6.27;4.23;;;;;;;22.68;40.29;157199.31;5005003;28;20434;-74
2023/05/28 11:21:03;;;;;;;6.90;4.90;;;;;;;22.87;40.04;157248.97;5007671;28;20621;-74
2023/05/28 11:23:30;;;;;;;6.70;4.60;;;;;;;23.04;41.27;157292.03;5009560;28;20469;-77
2023/05/28 11:25:56;;;;;;;5.10;4.10;;;;;;;23.29;41.21;157356.09;5009550;28;20437;-77
2023/05/28 11:28:24;;;;;;;9.03;6.80;;;;;;;23.15;40.36;157320.81;5021138;28;20441;-77
2023/05/28 11:30:51;;;;;;;5.90;4.83;;;;;;;23.25;38.84;157345.63;5005981;28;21039;-77
2023/05/28 11:33:18;;;;;;;6.53;4.93;;;;;;;23.28;38.20;157354.78;5008525;28;20479;-77